sensor_id;sensor_type;location;lat;lon;timestamp;temperature;humidity
71254;HTU21D;59019;47.638;18.966;2022-08-14T00:00:59;17.56;79.84
71254;HTU21D;59019;47.638;18.966;2022-08-14T00:03:27;17.51;80.07
71254;HTU21D;59019;47.638;18.966;2022-08-14T00:05:54;17.48;79.82
71254;HTU21D;59019;47.638;18.966;2022-08-14T00:08:20;17.47;80.07
71254;HTU21D;59019;47.638;18.966;2022-08-14T00:10:47;17.46;79.90
71254;HTU21D;59019;47.638;18.966;2022-08-14T00:13:14;17.39;80.33
71254;HTU21D;59019;47.638;18.966;2022-08-14T00:15:43;17.41;80.35
71254;HTU21D;59019;47.638;18.966;2022-08-14T00:18:11;17.40;80.31
71254;HTU21D;59019;47.638;18.966;2022-08-14T00:20:41;17.37;80.24
71254;HTU21D;59019;47.638;18.966;2022-08-14T00:23:08;17.34;80.47
71254;HTU21D;59019;47.638;18.966;2022-08-14T00:25:35;17.37;80.43
71254;HTU21D;59019;47.638;18.966;2022-08-14T00:28:02;17.38;80.10
71254;HTU21D;59019;47.638;18.966;2022-08-14T00:30:28;17.36;80.20
71254;HTU21D;59019;47.638;18.966;2022-08-14T00:32:54;17.39;79.84
71254;HTU21D;59019;47.638;18.966;2022-08-14T00:35:20;17.38;79.82
71254;HTU21D;59019;47.638;18.966;2022-08-14T00:37:45;17.40;79.71
71254;HTU21D;59019;47.638;18.966;2022-08-14T00:40:14;17.41;79.59
71254;HTU21D;59019;47.638;18.966;2022-08-14T00:42:40;17.34;79.96
71254;HTU21D;59019;47.638;18.966;2022-08-14T00:45:07;17.19;80.59
71254;HTU21D;59019;47.638;18.966;2022-08-14T00:47:34;17.24;80.55
71254;HTU21D;59019;47.638;18.966;2022-08-14T00:50:00;17.24;80.40
71254;HTU21D;59019;47.638;18.966;2022-08-14T00:52:27;17.29;80.20
71254;HTU21D;59019;47.638;18.966;2022-08-14T00:54:54;17.26;80.24
71254;HTU21D;59019;47.638;18.966;2022-08-14T00:57:23;17.31;80.31
71254;HTU21D;59019;47.638;18.966;2022-08-14T00:59:50;17.31;80.14
71254;HTU21D;59019;47.638;18.966;2022-08-14T01:02:17;17.30;79.90
71254;HTU21D;59019;47.638;18.966;2022-08-14T01:04:50;17.24;79.81
71254;HTU21D;59019;47.638;18.966;2022-08-14T01:07:18;17.25;80.04
71254;HTU21D;59019;47.638;18.966;2022-08-14T01:09:54;17.26;80.14
71254;HTU21D;59019;47.638;18.966;2022-08-14T01:12:21;17.20;80.32
71254;HTU21D;59019;47.638;18.966;2022-08-14T01:14:47;17.18;80.55
71254;HTU21D;59019;47.638;18.966;2022-08-14T01:17:20;17.17;80.83
71254;HTU21D;59019;47.638;18.966;2022-08-14T01:19:46;17.22;81.96
71254;HTU21D;59019;47.638;18.966;2022-08-14T01:22:30;17.16;81.67
71254;HTU21D;59019;47.638;18.966;2022-08-14T01:24:56;17.15;81.94
71254;HTU21D;59019;47.638;18.966;2022-08-14T01:27:22;17.14;82.33
71254;HTU21D;59019;47.638;18.966;2022-08-14T01:29:50;17.03;81.95
71254;HTU21D;59019;47.638;18.966;2022-08-14T01:32:17;16.96;82.10
71254;HTU21D;59019;47.638;18.966;2022-08-14T01:34:50;17.02;82.12
71254;HTU21D;59019;47.638;18.966;2022-08-14T01:37:18;17.06;82.23
71254;HTU21D;59019;47.638;18.966;2022-08-14T01:39:48;17.04;82.00
71254;HTU21D;59019;47.638;18.966;2022-08-14T01:42:14;17.03;81.95
71254;HTU21D;59019;47.638;18.966;2022-08-14T01:44:40;17.02;82.05
71254;HTU21D;59019;47.638;18.966;2022-08-14T01:47:08;16.96;82.24
71254;HTU21D;59019;47.638;18.966;2022-08-14T01:49:36;16.91;82.40
71254;HTU21D;59019;47.638;18.966;2022-08-14T01:52:02;16.96;81.98
71254;HTU21D;59019;47.638;18.966;2022-08-14T01:54:28;16.92;81.78
71254;HTU21D;59019;47.638;18.966;2022-08-14T01:56:55;16.94;81.62
71254;HTU21D;59019;47.638;18.966;2022-08-14T01:59:29;16.94;81.52
71254;HTU21D;59019;47.638;18.966;2022-08-14T02:02:00;16.86;81.91
71254;HTU21D;59019;47.638;18.966;2022-08-14T02:04:34;16.79;82.19
71254;HTU21D;59019;47.638;18.966;2022-08-14T02:07:00;16.72;82.42
71254;HTU21D;59019;47.638;18.966;2022-08-14T02:09:28;16.66;82.50
71254;HTU21D;59019;47.638;18.966;2022-08-14T02:12:00;16.63;82.65
71254;HTU21D;59019;47.638;18.966;2022-08-14T02:14:27;16.67;82.77
71254;HTU21D;59019;47.638;18.966;2022-08-14T02:16:53;16.64;82.62
71254;HTU21D;59019;47.638;18.966;2022-08-14T02:19:21;16.62;82.81
71254;HTU21D;59019;47.638;18.966;2022-08-14T02:21:51;16.67;82.61
71254;HTU21D;59019;47.638;18.966;2022-08-14T02:24:21;16.61;82.76
71254;HTU21D;59019;47.638;18.966;2022-08-14T02:26:50;16.52;83.17
71254;HTU21D;59019;47.638;18.966;2022-08-14T02:29:20;16.52;83.35
71254;HTU21D;59019;47.638;18.966;2022-08-14T02:31:54;16.50;83.46
71254;HTU21D;59019;47.638;18.966;2022-08-14T02:34:34;16.55;83.45
71254;HTU21D;59019;47.638;18.966;2022-08-14T02:37:10;16.57;83.77
71254;HTU21D;59019;47.638;18.966;2022-08-14T02:39:42;16.51;83.58
71254;HTU21D;59019;47.638;18.966;2022-08-14T02:42:10;16.51;83.71
71254;HTU21D;59019;47.638;18.966;2022-08-14T02:44:43;16.47;83.94
71254;HTU21D;59019;47.638;18.966;2022-08-14T02:47:09;16.48;83.86
71254;HTU21D;59019;47.638;18.966;2022-08-14T02:49:36;16.48;83.85
71254;HTU21D;59019;47.638;18.966;2022-08-14T02:52:03;16.48;83.87
71254;HTU21D;59019;47.638;18.966;2022-08-14T02:54:30;16.44;84.13
71254;HTU21D;59019;47.638;18.966;2022-08-14T02:56:59;16.41;84.29
71254;HTU21D;59019;47.638;18.966;2022-08-14T02:59:27;16.37;84.58
71254;HTU21D;59019;47.638;18.966;2022-08-14T03:01:55;16.35;84.64
71254;HTU21D;59019;47.638;18.966;2022-08-14T03:04:22;16.31;84.83
71254;HTU21D;59019;47.638;18.966;2022-08-14T03:06:48;16.30;84.75
71254;HTU21D;59019;47.638;18.966;2022-08-14T03:09:15;16.30;84.81
71254;HTU21D;59019;47.638;18.966;2022-08-14T03:11:41;16.31;84.84
71254;HTU21D;59019;47.638;18.966;2022-08-14T03:14:09;16.28;84.95
71254;HTU21D;59019;47.638;18.966;2022-08-14T03:16:37;16.27;84.79
71254;HTU21D;59019;47.638;18.966;2022-08-14T03:19:04;16.26;84.73
71254;HTU21D;59019;47.638;18.966;2022-08-14T03:21:32;16.20;84.76
71254;HTU21D;59019;47.638;18.966;2022-08-14T03:23:59;16.18;84.75
71254;HTU21D;59019;47.638;18.966;2022-08-14T03:26:45;16.14;84.92
71254;HTU21D;59019;47.638;18.966;2022-08-14T03:29:15;16.12;84.40
71254;HTU21D;59019;47.638;18.966;2022-08-14T03:31:46;16.10;83.94
71254;HTU21D;59019;47.638;18.966;2022-08-14T03:34:13;16.07;84.10
71254;HTU21D;59019;47.638;18.966;2022-08-14T03:36:39;16.12;84.31
71254;HTU21D;59019;47.638;18.966;2022-08-14T03:39:06;15.97;84.84
71254;HTU21D;59019;47.638;18.966;2022-08-14T03:41:32;15.98;85.63
71254;HTU21D;59019;47.638;18.966;2022-08-14T03:44:01;15.97;86.19
71254;HTU21D;59019;47.638;18.966;2022-08-14T03:46:36;15.91;86.54
71254;HTU21D;59019;47.638;18.966;2022-08-14T03:49:04;15.91;86.77
71254;HTU21D;59019;47.638;18.966;2022-08-14T03:51:30;15.97;86.79
71254;HTU21D;59019;47.638;18.966;2022-08-14T03:53:58;15.96;86.73
71254;HTU21D;59019;47.638;18.966;2022-08-14T03:56:25;16.00;86.66
71254;HTU21D;59019;47.638;18.966;2022-08-14T03:58:54;16.02;86.81
71254;HTU21D;59019;47.638;18.966;2022-08-14T04:01:21;16.04;86.70
71254;HTU21D;59019;47.638;18.966;2022-08-14T04:03:50;16.02;86.70
71254;HTU21D;59019;47.638;18.966;2022-08-14T04:06:17;16.07;86.73
71254;HTU21D;59019;47.638;18.966;2022-08-14T04:08:47;16.13;86.83
71254;HTU21D;59019;47.638;18.966;2022-08-14T04:11:14;16.12;87.21
71254;HTU21D;59019;47.638;18.966;2022-08-14T04:13:41;16.13;87.47
71254;HTU21D;59019;47.638;18.966;2022-08-14T04:16:15;16.17;87.52
71254;HTU21D;59019;47.638;18.966;2022-08-14T04:18:45;16.20;87.41
71254;HTU21D;59019;47.638;18.966;2022-08-14T04:21:12;16.27;87.17
71254;HTU21D;59019;47.638;18.966;2022-08-14T04:23:39;16.35;86.91
71254;HTU21D;59019;47.638;18.966;2022-08-14T04:26:08;16.40;86.70
71254;HTU21D;59019;47.638;18.966;2022-08-14T04:28:35;16.42;86.83
71254;HTU21D;59019;47.638;18.966;2022-08-14T04:31:02;16.41;86.44
71254;HTU21D;59019;47.638;18.966;2022-08-14T04:33:49;16.51;86.05
71254;HTU21D;59019;47.638;18.966;2022-08-14T04:36:18;16.61;85.67
71254;HTU21D;59019;47.638;18.966;2022-08-14T04:38:44;16.77;85.35
71254;HTU21D;59019;47.638;18.966;2022-08-14T04:41:28;17.01;84.28
71254;HTU21D;59019;47.638;18.966;2022-08-14T04:44:12;17.21;83.57
71254;HTU21D;59019;47.638;18.966;2022-08-14T04:46:38;17.39;83.18
71254;HTU21D;59019;47.638;18.966;2022-08-14T04:49:04;17.59;82.67
71254;HTU21D;59019;47.638;18.966;2022-08-14T04:51:30;17.83;82.42
71254;HTU21D;59019;47.638;18.966;2022-08-14T04:53:57;18.09;82.07
71254;HTU21D;59019;47.638;18.966;2022-08-14T04:56:25;18.27;81.97
71254;HTU21D;59019;47.638;18.966;2022-08-14T04:58:54;18.53;81.21
71254;HTU21D;59019;47.638;18.966;2022-08-14T05:01:26;18.79;79.81
71254;HTU21D;59019;47.638;18.966;2022-08-14T05:03:52;18.99;79.12
71254;HTU21D;59019;47.638;18.966;2022-08-14T05:06:19;19.18;78.26
71254;HTU21D;59019;47.638;18.966;2022-08-14T05:08:45;19.37;77.92
71254;HTU21D;59019;47.638;18.966;2022-08-14T05:11:11;19.57;77.29
71254;HTU21D;59019;47.638;18.966;2022-08-14T05:13:37;19.84;76.60
71254;HTU21D;59019;47.638;18.966;2022-08-14T05:16:04;20.15;76.03
71254;HTU21D;59019;47.638;18.966;2022-08-14T05:18:36;20.37;76.19
71254;HTU21D;59019;47.638;18.966;2022-08-14T05:21:04;20.69;75.21
71254;HTU21D;59019;47.638;18.966;2022-08-14T05:23:33;21.01;74.67
71254;HTU21D;59019;47.638;18.966;2022-08-14T05:26:01;21.27;73.87
71254;HTU21D;59019;47.638;18.966;2022-08-14T05:28:30;21.59;72.96
71254;HTU21D;59019;47.638;18.966;2022-08-14T05:30:58;21.89;72.52
71254;HTU21D;59019;47.638;18.966;2022-08-14T05:33:27;22.23;71.52
71254;HTU21D;59019;47.638;18.966;2022-08-14T05:35:57;22.51;71.07
71254;HTU21D;59019;47.638;18.966;2022-08-14T05:38:28;22.82;70.44
71254;HTU21D;59019;47.638;18.966;2022-08-14T05:41:01;23.11;70.48
71254;HTU21D;59019;47.638;18.966;2022-08-14T05:43:27;23.40;69.22
71254;HTU21D;59019;47.638;18.966;2022-08-14T05:45:54;23.69;68.75
71254;HTU21D;59019;47.638;18.966;2022-08-14T05:48:19;23.96;68.15
71254;HTU21D;59019;47.638;18.966;2022-08-14T05:50:45;24.19;67.10
71254;HTU21D;59019;47.638;18.966;2022-08-14T05:53:11;24.49;65.27
71254;HTU21D;59019;47.638;18.966;2022-08-14T05:55:36;24.47;64.32
71254;HTU21D;59019;47.638;18.966;2022-08-14T05:58:06;24.60;63.91
71254;HTU21D;59019;47.638;18.966;2022-08-14T06:00:41;24.70;63.79
71254;HTU21D;59019;47.638;18.966;2022-08-14T06:03:11;24.86;63.40
71254;HTU21D;59019;47.638;18.966;2022-08-14T06:05:40;25.14;62.59
71254;HTU21D;59019;47.638;18.966;2022-08-14T06:08:34;25.33;62.02
71254;HTU21D;59019;47.638;18.966;2022-08-14T06:11:01;25.57;61.64
71254;HTU21D;59019;47.638;18.966;2022-08-14T06:13:48;25.74;60.97
71254;HTU21D;59019;47.638;18.966;2022-08-14T06:16:15;25.86;60.51
71254;HTU21D;59019;47.638;18.966;2022-08-14T06:18:41;25.99;60.12
71254;HTU21D;59019;47.638;18.966;2022-08-14T06:21:07;26.10;60.73
71254;HTU21D;59019;47.638;18.966;2022-08-14T06:23:32;26.24;59.96
71254;HTU21D;59019;47.638;18.966;2022-08-14T06:25:58;26.43;59.52
71254;HTU21D;59019;47.638;18.966;2022-08-14T06:28:25;26.65;59.77
71254;HTU21D;59019;47.638;18.966;2022-08-14T06:30:51;27.02;58.95
71254;HTU21D;59019;47.638;18.966;2022-08-14T06:33:18;27.35;58.43
71254;HTU21D;59019;47.638;18.966;2022-08-14T06:35:46;27.61;57.00
71254;HTU21D;59019;47.638;18.966;2022-08-14T06:38:18;27.84;56.83
71254;HTU21D;59019;47.638;18.966;2022-08-14T06:40:46;28.09;56.60
71254;HTU21D;59019;47.638;18.966;2022-08-14T06:43:12;28.43;54.59
71254;HTU21D;59019;47.638;18.966;2022-08-14T06:45:41;28.63;53.81
71254;HTU21D;59019;47.638;18.966;2022-08-14T06:48:16;28.77;53.18
71254;HTU21D;59019;47.638;18.966;2022-08-14T06:50:44;28.90;52.80
71254;HTU21D;59019;47.638;18.966;2022-08-14T06:53:11;29.09;52.83
71254;HTU21D;59019;47.638;18.966;2022-08-14T06:55:42;29.24;52.27
71254;HTU21D;59019;47.638;18.966;2022-08-14T06:58:12;29.46;52.04
71254;HTU21D;59019;47.638;18.966;2022-08-14T07:00:38;29.71;51.56
71254;HTU21D;59019;47.638;18.966;2022-08-14T07:03:03;29.98;50.79
71254;HTU21D;59019;47.638;18.966;2022-08-14T07:05:48;30.17;49.69
71254;HTU21D;59019;47.638;18.966;2022-08-14T07:08:26;30.06;50.00
71254;HTU21D;59019;47.638;18.966;2022-08-14T07:10:56;30.16;49.84
71254;HTU21D;59019;47.638;18.966;2022-08-14T07:13:23;30.37;49.90
71254;HTU21D;59019;47.638;18.966;2022-08-14T07:15:51;30.54;48.58
71254;HTU21D;59019;47.638;18.966;2022-08-14T07:18:26;30.70;49.02
71254;HTU21D;59019;47.638;18.966;2022-08-14T07:20:52;30.87;48.24
71254;HTU21D;59019;47.638;18.966;2022-08-14T07:23:18;30.72;48.61
71254;HTU21D;59019;47.638;18.966;2022-08-14T07:25:45;30.68;48.47
71254;HTU21D;59019;47.638;18.966;2022-08-14T07:30:37;30.92;48.62
71254;HTU21D;59019;47.638;18.966;2022-08-14T07:33:04;31.05;48.64
71254;HTU21D;59019;47.638;18.966;2022-08-14T07:35:30;30.97;48.19
71254;HTU21D;59019;47.638;18.966;2022-08-14T07:37:57;31.00;47.77
71254;HTU21D;59019;47.638;18.966;2022-08-14T07:40:22;31.19;47.83
71254;HTU21D;59019;47.638;18.966;2022-08-14T07:42:48;31.05;48.20
71254;HTU21D;59019;47.638;18.966;2022-08-14T07:45:13;31.23;47.75
71254;HTU21D;59019;47.638;18.966;2022-08-14T07:47:40;31.01;48.04
71254;HTU21D;59019;47.638;18.966;2022-08-14T07:50:14;30.86;47.50
71254;HTU21D;59019;47.638;18.966;2022-08-14T07:52:42;31.09;47.42
71254;HTU21D;59019;47.638;18.966;2022-08-14T07:55:08;30.85;47.76
71254;HTU21D;59019;47.638;18.966;2022-08-14T07:57:34;30.90;47.68
71254;HTU21D;59019;47.638;18.966;2022-08-14T08:00:05;30.95;47.79
71254;HTU21D;59019;47.638;18.966;2022-08-14T08:02:32;31.12;47.61
71254;HTU21D;59019;47.638;18.966;2022-08-14T08:04:59;31.49;47.41
71254;HTU21D;59019;47.638;18.966;2022-08-14T08:07:26;31.38;46.74
71254;HTU21D;59019;47.638;18.966;2022-08-14T08:09:55;31.54;46.73
71254;HTU21D;59019;47.638;18.966;2022-08-14T08:12:23;31.78;45.96
71254;HTU21D;59019;47.638;18.966;2022-08-14T08:14:50;32.00;45.83
71254;HTU21D;59019;47.638;18.966;2022-08-14T08:17:19;32.17;45.18
71254;HTU21D;59019;47.638;18.966;2022-08-14T08:19:46;32.38;45.38
71254;HTU21D;59019;47.638;18.966;2022-08-14T08:22:33;32.57;43.87
71254;HTU21D;59019;47.638;18.966;2022-08-14T08:25:13;32.55;44.19
71254;HTU21D;59019;47.638;18.966;2022-08-14T08:27:39;32.64;44.12
71254;HTU21D;59019;47.638;18.966;2022-08-14T08:30:07;32.71;44.09
71254;HTU21D;59019;47.638;18.966;2022-08-14T08:32:42;32.87;43.72
71254;HTU21D;59019;47.638;18.966;2022-08-14T08:35:24;33.07;43.69
71254;HTU21D;59019;47.638;18.966;2022-08-14T08:37:52;33.28;43.24
71254;HTU21D;59019;47.638;18.966;2022-08-14T08:40:29;33.62;42.71
71254;HTU21D;59019;47.638;18.966;2022-08-14T08:42:56;34.00;41.97
71254;HTU21D;59019;47.638;18.966;2022-08-14T08:45:22;34.31;41.09
71254;HTU21D;59019;47.638;18.966;2022-08-14T08:47:49;34.53;41.13
71254;HTU21D;59019;47.638;18.966;2022-08-14T08:50:27;34.71;41.05
71254;HTU21D;59019;47.638;18.966;2022-08-14T08:52:57;34.56;39.97
71254;HTU21D;59019;47.638;18.966;2022-08-14T08:55:28;34.67;40.45
71254;HTU21D;59019;47.638;18.966;2022-08-14T08:57:56;34.08;40.59
71254;HTU21D;59019;47.638;18.966;2022-08-14T09:00:22;33.16;41.33
71254;HTU21D;59019;47.638;18.966;2022-08-14T09:03:09;32.05;43.13
71254;HTU21D;59019;47.638;18.966;2022-08-14T09:05:37;31.19;44.73
71254;HTU21D;59019;47.638;18.966;2022-08-14T09:08:12;30.86;45.89
71254;HTU21D;59019;47.638;18.966;2022-08-14T09:10:37;30.97;45.72
71254;HTU21D;59019;47.638;18.966;2022-08-14T09:13:03;30.82;45.77
71254;HTU21D;59019;47.638;18.966;2022-08-14T09:15:29;30.56;45.97
71254;HTU21D;59019;47.638;18.966;2022-08-14T09:17:56;30.31;46.70
71254;HTU21D;59019;47.638;18.966;2022-08-14T09:20:22;30.31;47.50
71254;HTU21D;59019;47.638;18.966;2022-08-14T09:22:48;30.92;46.18
71254;HTU21D;59019;47.638;18.966;2022-08-14T09:25:15;31.74;44.59
71254;HTU21D;59019;47.638;18.966;2022-08-14T09:27:41;32.69;43.46
71254;HTU21D;59019;47.638;18.966;2022-08-14T09:30:07;32.98;41.49
71254;HTU21D;59019;47.638;18.966;2022-08-14T09:44:05;33.47;40.81
71254;HTU21D;59019;47.638;18.966;2022-08-14T09:46:33;33.82;40.26
71254;HTU21D;59019;47.638;18.966;2022-08-14T09:49:06;33.45;40.30
71254;HTU21D;59019;47.638;18.966;2022-08-14T09:51:32;32.69;40.33
71254;HTU21D;59019;47.638;18.966;2022-08-14T09:54:06;32.73;40.07
71254;HTU21D;59019;47.638;18.966;2022-08-14T09:56:47;32.67;40.46
71254;HTU21D;59019;47.638;18.966;2022-08-14T09:59:15;32.84;40.87
71254;HTU21D;59019;47.638;18.966;2022-08-14T10:01:47;32.60;40.30
71254;HTU21D;59019;47.638;18.966;2022-08-14T10:04:24;32.27;40.94
71254;HTU21D;59019;47.638;18.966;2022-08-14T10:06:50;32.01;41.95
71254;HTU21D;59019;47.638;18.966;2022-08-14T10:09:16;31.78;41.62
71254;HTU21D;59019;47.638;18.966;2022-08-14T10:12:03;31.46;41.83
71254;HTU21D;59019;47.638;18.966;2022-08-14T10:14:33;31.25;42.35
71254;HTU21D;59019;47.638;18.966;2022-08-14T10:16:59;31.23;42.52
71254;HTU21D;59019;47.638;18.966;2022-08-14T10:19:27;31.15;42.38
71254;HTU21D;59019;47.638;18.966;2022-08-14T10:22:01;30.95;42.74
71254;HTU21D;59019;47.638;18.966;2022-08-14T10:24:39;30.74;43.49
71254;HTU21D;59019;47.638;18.966;2022-08-14T10:27:16;30.54;44.05
71254;HTU21D;59019;47.638;18.966;2022-08-14T10:29:47;30.31;44.83
71254;HTU21D;59019;47.638;18.966;2022-08-14T10:32:13;30.08;45.32
71254;HTU21D;59019;47.638;18.966;2022-08-14T10:34:40;29.88;46.18
71254;HTU21D;59019;47.638;18.966;2022-08-14T10:37:10;29.77;46.54
71254;HTU21D;59019;47.638;18.966;2022-08-14T10:39:41;29.68;46.04
71254;HTU21D;59019;47.638;18.966;2022-08-14T10:42:11;29.60;46.41
71254;HTU21D;59019;47.638;18.966;2022-08-14T10:44:44;29.49;46.57
71254;HTU21D;59019;47.638;18.966;2022-08-14T10:47:14;29.43;46.98
71254;HTU21D;59019;47.638;18.966;2022-08-14T10:49:55;29.33;46.52
71254;HTU21D;59019;47.638;18.966;2022-08-14T10:52:23;29.30;46.71
71254;HTU21D;59019;47.638;18.966;2022-08-14T10:54:50;29.26;46.95
71254;HTU21D;59019;47.638;18.966;2022-08-14T10:57:24;29.32;47.13
71254;HTU21D;59019;47.638;18.966;2022-08-14T10:59:53;29.43;47.65
71254;HTU21D;59019;47.638;18.966;2022-08-14T11:02:28;29.59;46.49
71254;HTU21D;59019;47.638;18.966;2022-08-14T11:05:08;29.58;46.77
71254;HTU21D;59019;47.638;18.966;2022-08-14T11:07:40;29.76;45.89
71254;HTU21D;59019;47.638;18.966;2022-08-14T11:10:12;29.89;46.18
71254;HTU21D;59019;47.638;18.966;2022-08-14T11:15:05;30.13;45.60
71254;HTU21D;59019;47.638;18.966;2022-08-14T11:17:32;30.26;45.88
71254;HTU21D;59019;47.638;18.966;2022-08-14T11:20:02;30.45;45.38
71254;HTU21D;59019;47.638;18.966;2022-08-14T11:22:29;30.64;44.61
71254;HTU21D;59019;47.638;18.966;2022-08-14T11:25:01;30.71;44.25
71254;HTU21D;59019;47.638;18.966;2022-08-14T11:27:28;30.69;44.97
71254;HTU21D;59019;47.638;18.966;2022-08-14T11:30:00;30.91;44.54
71254;HTU21D;59019;47.638;18.966;2022-08-14T11:32:27;31.16;43.77
71254;HTU21D;59019;47.638;18.966;2022-08-14T11:34:54;31.45;43.81
71254;HTU21D;59019;47.638;18.966;2022-08-14T11:37:20;31.72;43.13
71254;HTU21D;59019;47.638;18.966;2022-08-14T11:39:46;31.84;41.67
71254;HTU21D;59019;47.638;18.966;2022-08-14T11:42:24;31.90;41.23
71254;HTU21D;59019;47.638;18.966;2022-08-14T11:44:58;31.82;41.35
71254;HTU21D;59019;47.638;18.966;2022-08-14T11:47:24;31.55;41.23
71254;HTU21D;59019;47.638;18.966;2022-08-14T11:49:50;31.40;41.28
71254;HTU21D;59019;47.638;18.966;2022-08-14T11:52:16;31.40;40.79
71254;HTU21D;59019;47.638;18.966;2022-08-14T11:54:44;32.11;40.27
71254;HTU21D;59019;47.638;18.966;2022-08-14T11:57:17;32.72;38.85
71254;HTU21D;59019;47.638;18.966;2022-08-14T11:59:45;32.62;39.68
71254;HTU21D;59019;47.638;18.966;2022-08-14T12:02:15;33.63;38.53
71254;HTU21D;59019;47.638;18.966;2022-08-14T12:04:51;34.20;36.83
71254;HTU21D;59019;47.638;18.966;2022-08-14T12:07:17;33.96;36.38
71254;HTU21D;59019;47.638;18.966;2022-08-14T12:09:45;33.67;36.59
71254;HTU21D;59019;47.638;18.966;2022-08-14T12:12:19;33.80;37.14
71254;HTU21D;59019;47.638;18.966;2022-08-14T12:14:55;33.82;36.63
71254;HTU21D;59019;47.638;18.966;2022-08-14T12:17:22;33.52;36.85
71254;HTU21D;59019;47.638;18.966;2022-08-14T12:19:55;33.38;36.47
71254;HTU21D;59019;47.638;18.966;2022-08-14T12:22:36;33.57;36.40
71254;HTU21D;59019;47.638;18.966;2022-08-14T12:25:05;34.04;36.13
71254;HTU21D;59019;47.638;18.966;2022-08-14T12:27:52;34.26;35.09
71254;HTU21D;59019;47.638;18.966;2022-08-14T12:30:36;34.63;34.70
71254;HTU21D;59019;47.638;18.966;2022-08-14T12:33:04;34.95;33.27
71254;HTU21D;59019;47.638;18.966;2022-08-14T12:35:40;35.08;33.21
71254;HTU21D;59019;47.638;18.966;2022-08-14T12:38:11;34.75;33.41
71254;HTU21D;59019;47.638;18.966;2022-08-14T12:43:12;35.60;33.00
71254;HTU21D;59019;47.638;18.966;2022-08-14T12:45:37;36.30;32.08
71254;HTU21D;59019;47.638;18.966;2022-08-14T12:48:04;36.88;31.70
71254;HTU21D;59019;47.638;18.966;2022-08-14T12:50:40;36.89;30.77
71254;HTU21D;59019;47.638;18.966;2022-08-14T12:53:07;36.76;31.11
71254;HTU21D;59019;47.638;18.966;2022-08-14T12:55:37;36.62;31.06
71254;HTU21D;59019;47.638;18.966;2022-08-14T12:58:04;36.59;31.54
71254;HTU21D;59019;47.638;18.966;2022-08-14T13:00:32;36.87;30.79
71254;HTU21D;59019;47.638;18.966;2022-08-14T13:02:59;37.21;30.79
71254;HTU21D;59019;47.638;18.966;2022-08-14T13:05:30;36.86;30.48
71254;HTU21D;59019;47.638;18.966;2022-08-14T13:07:58;37.18;30.25
71254;HTU21D;59019;47.638;18.966;2022-08-14T13:10:26;36.90;30.64
71254;HTU21D;59019;47.638;18.966;2022-08-14T13:12:56;37.01;30.93
71254;HTU21D;59019;47.638;18.966;2022-08-14T13:15:22;36.95;30.61
71254;HTU21D;59019;47.638;18.966;2022-08-14T13:17:50;37.00;30.63
71254;HTU21D;59019;47.638;18.966;2022-08-14T13:20:19;37.05;30.59
71254;HTU21D;59019;47.638;18.966;2022-08-14T13:22:45;37.13;30.88
71254;HTU21D;59019;47.638;18.966;2022-08-14T13:25:13;37.30;30.29
71254;HTU21D;59019;47.638;18.966;2022-08-14T13:27:38;37.55;30.39
71254;HTU21D;59019;47.638;18.966;2022-08-14T13:30:09;37.45;29.80
71254;HTU21D;59019;47.638;18.966;2022-08-14T13:32:36;37.56;29.94
71254;HTU21D;59019;47.638;18.966;2022-08-14T13:35:06;37.59;29.76
71254;HTU21D;59019;47.638;18.966;2022-08-14T13:37:32;37.47;29.31
71254;HTU21D;59019;47.638;18.966;2022-08-14T13:39:58;36.89;29.32
71254;HTU21D;59019;47.638;18.966;2022-08-14T13:42:25;36.41;30.38
71254;HTU21D;59019;47.638;18.966;2022-08-14T13:44:55;35.85;30.95
71254;HTU21D;59019;47.638;18.966;2022-08-14T13:47:23;35.23;32.08
71254;HTU21D;59019;47.638;18.966;2022-08-14T13:49:55;34.68;32.80
71254;HTU21D;59019;47.638;18.966;2022-08-14T13:52:21;33.96;33.31
71254;HTU21D;59019;47.638;18.966;2022-08-14T13:54:49;33.80;33.43
71254;HTU21D;59019;47.638;18.966;2022-08-14T13:57:19;33.45;33.65
71254;HTU21D;59019;47.638;18.966;2022-08-14T13:59:47;33.20;33.42
71254;HTU21D;59019;47.638;18.966;2022-08-14T14:02:14;32.75;34.85
71254;HTU21D;59019;47.638;18.966;2022-08-14T14:04:44;32.63;34.74
71254;HTU21D;59019;47.638;18.966;2022-08-14T14:07:14;32.57;35.18
71254;HTU21D;59019;47.638;18.966;2022-08-14T14:09:43;32.45;35.42
71254;HTU21D;59019;47.638;18.966;2022-08-14T14:12:09;32.46;35.38
71254;HTU21D;59019;47.638;18.966;2022-08-14T14:14:36;32.40;35.51
71254;HTU21D;59019;47.638;18.966;2022-08-14T14:17:04;32.39;35.75
71254;HTU21D;59019;47.638;18.966;2022-08-14T14:19:31;32.23;36.63
71254;HTU21D;59019;47.638;18.966;2022-08-14T14:22:00;32.17;36.15
71254;HTU21D;59019;47.638;18.966;2022-08-14T14:24:27;32.17;36.08
71254;HTU21D;59019;47.638;18.966;2022-08-14T14:26:53;32.42;36.30
71254;HTU21D;59019;47.638;18.966;2022-08-14T14:29:24;32.97;35.43
71254;HTU21D;59019;47.638;18.966;2022-08-14T14:31:51;33.79;33.87
71254;HTU21D;59019;47.638;18.966;2022-08-14T14:34:20;34.26;33.32
71254;HTU21D;59019;47.638;18.966;2022-08-14T14:36:49;34.76;32.82
71254;HTU21D;59019;47.638;18.966;2022-08-14T14:39:15;34.86;32.19
71254;HTU21D;59019;47.638;18.966;2022-08-14T14:41:42;34.44;32.88
71254;HTU21D;59019;47.638;18.966;2022-08-14T14:44:11;34.23;33.29
71254;HTU21D;59019;47.638;18.966;2022-08-14T14:46:38;33.92;33.72
71254;HTU21D;59019;47.638;18.966;2022-08-14T14:49:07;33.77;34.43
71254;HTU21D;59019;47.638;18.966;2022-08-14T14:51:39;34.03;34.73
71254;HTU21D;59019;47.638;18.966;2022-08-14T14:54:06;34.50;34.05
71254;HTU21D;59019;47.638;18.966;2022-08-14T14:56:33;34.65;33.05
71254;HTU21D;59019;47.638;18.966;2022-08-14T14:58:58;35.16;33.24
71254;HTU21D;59019;47.638;18.966;2022-08-14T15:01:24;35.42;32.48
71254;HTU21D;59019;47.638;18.966;2022-08-14T15:03:50;35.37;32.16
71254;HTU21D;59019;47.638;18.966;2022-08-14T15:06:20;35.25;31.93
71254;HTU21D;59019;47.638;18.966;2022-08-14T15:08:48;35.04;31.82
71254;HTU21D;59019;47.638;18.966;2022-08-14T15:11:14;35.09;32.38
71254;HTU21D;59019;47.638;18.966;2022-08-14T15:13:39;35.11;33.77
71254;HTU21D;59019;47.638;18.966;2022-08-14T15:16:07;35.22;32.76
71254;HTU21D;59019;47.638;18.966;2022-08-14T15:18:34;35.44;32.10
71254;HTU21D;59019;47.638;18.966;2022-08-14T15:21:00;35.51;31.69
71254;HTU21D;59019;47.638;18.966;2022-08-14T15:23:30;35.09;31.75
71254;HTU21D;59019;47.638;18.966;2022-08-14T15:25:55;34.88;33.29
71254;HTU21D;59019;47.638;18.966;2022-08-14T15:28:24;35.13;33.46
71254;HTU21D;59019;47.638;18.966;2022-08-14T15:30:51;35.36;33.12
71254;HTU21D;59019;47.638;18.966;2022-08-14T15:33:17;35.42;33.05